sensor_id;sensor_type;location;lat;lon;timestamp;pressure;altitude;pressure_sealevel;temperature;humidity
13314;BME280;6725;48.112;11.604;2023-07-24T00:01:53;94673.28;;;20.42;100.00
13314;BME280;6725;48.112;11.604;2023-07-24T00:04:18;94666.41;;;20.38;100.00
13314;BME280;6725;48.112;11.604;2023-07-24T00:06:44;94665.78;;;20.28;100.00
13314;BME280;6725;48.112;11.604;2023-07-24T00:09:09;94654.53;;;20.17;100.00
13314;BME280;6725;48.112;11.604;2023-07-24T00:11:34;94648.25;;;20.17;100.00
13314;BME280;6725;48.112;11.604;2023-07-24T00:14:00;94646.22;;;20.17;100.00
13314;BME280;6725;48.112;11.604;2023-07-24T00:16:25;94640.97;;;20.19;100.00
13314;BME280;6725;48.112;11.604;2023-07-24T00:18:50;94641.06;;;20.10;100.00
13314;BME280;6725;48.112;11.604;2023-07-24T00:21:16;94628.75;;;20.11;100.00
13314;BME280;6725;48.112;11.604;2023-07-24T00:23:41;94630.53;;;20.14;100.00
13314;BME280;6725;48.112;11.604;2023-07-24T00:26:06;94626.44;;;20.10;100.00
13314;BME280;6725;48.112;11.604;2023-07-24T00:28:32;94623.50;;;19.99;100.00
13314;BME280;6725;48.112;11.604;2023-07-24T00:30:57;94610.72;;;19.87;100.00
13314;BME280;6725;48.112;11.604;2023-07-24T00:33:23;94600.41;;;19.87;100.00
13314;BME280;6725;48.112;11.604;2023-07-24T00:35:48;94601.09;;;19.82;100.00
13314;BME280;6725;48.112;11.604;2023-07-24T00:38:13;94589.56;;;19.69;100.00
13314;BME280;6725;48.112;11.604;2023-07-24T00:40:39;94583.06;;;19.72;100.00
13314;BME280;6725;48.112;11.604;2023-07-24T00:43:04;94592.63;;;19.71;100.00
13314;BME280;6725;48.112;11.604;2023-07-24T00:45:29;94577.44;;;19.67;100.00
13314;BME280;6725;48.112;11.604;2023-07-24T00:47:55;94570.28;;;19.60;100.00
13314;BME280;6725;48.112;11.604;2023-07-24T00:50:21;94567.78;;;19.62;100.00
13314;BME280;6725;48.112;11.604;2023-07-24T00:52:46;94566.09;;;19.50;100.00
13314;BME280;6725;48.112;11.604;2023-07-24T00:55:13;94563.81;;;19.48;100.00
13314;BME280;6725;48.112;11.604;2023-07-24T00:57:39;94563.81;;;19.48;100.00
13314;BME280;6725;48.112;11.604;2023-07-24T01:00:06;94556.19;;;19.43;100.00
13314;BME280;6725;48.112;11.604;2023-07-24T01:02:31;94562.09;;;19.51;100.00
13314;BME280;6725;48.112;11.604;2023-07-24T01:04:57;94559.59;;;19.53;100.00
13314;BME280;6725;48.112;11.604;2023-07-24T01:07:23;94568.41;;;19.52;100.00
13314;BME280;6725;48.112;11.604;2023-07-24T01:09:48;94567.63;;;19.51;100.00
13314;BME280;6725;48.112;11.604;2023-07-24T01:12:21;94562.56;;;19.49;100.00
13314;BME280;6725;48.112;11.604;2023-07-24T01:14:56;94560.72;;;19.61;100.00
13314;BME280;6725;48.112;11.604;2023-07-24T01:17:24;94560.91;;;19.58;100.00
13314;BME280;6725;48.112;11.604;2023-07-24T01:19:55;94550.81;;;19.55;100.00
13314;BME280;6725;48.112;11.604;2023-07-24T01:27:47;94563.59;;;19.52;100.00
13314;BME280;6725;48.112;11.604;2023-07-24T01:30:18;94551.78;;;19.52;100.00
13314;BME280;6725;48.112;11.604;2023-07-24T01:32:44;94556.53;;;19.51;100.00
13314;BME280;6725;48.112;11.604;2023-07-24T01:35:09;94554.34;;;19.55;100.00
13314;BME280;6725;48.112;11.604;2023-07-24T01:37:35;94547.91;;;19.64;100.00
13314;BME280;6725;48.112;11.604;2023-07-24T01:40:02;94539.75;;;19.55;100.00
13314;BME280;6725;48.112;11.604;2023-07-24T01:42:32;94529.38;;;19.35;100.00
13314;BME280;6725;48.112;11.604;2023-07-24T01:44:58;94518.38;;;19.26;100.00
13314;BME280;6725;48.112;11.604;2023-07-24T01:47:23;94509.97;;;19.20;100.00
13314;BME280;6725;48.112;11.604;2023-07-24T01:49:49;94510.19;;;19.17;100.00
13314;BME280;6725;48.112;11.604;2023-07-24T01:52:14;94504.47;;;19.06;100.00
13314;BME280;6725;48.112;11.604;2023-07-24T01:54:39;94508.06;;;19.12;100.00
13314;BME280;6725;48.112;11.604;2023-07-24T01:57:05;94499.38;;;19.19;100.00
13314;BME280;6725;48.112;11.604;2023-07-24T01:59:30;94514.47;;;19.18;100.00
13314;BME280;6725;48.112;11.604;2023-07-24T02:01:56;94520.88;;;19.24;100.00
13314;BME280;6725;48.112;11.604;2023-07-24T02:04:21;94516.19;;;19.30;100.00
13314;BME280;6725;48.112;11.604;2023-07-24T02:06:48;94526.59;;;19.35;100.00
13314;BME280;6725;48.112;11.604;2023-07-24T02:09:13;94511.50;;;19.36;100.00
13314;BME280;6725;48.112;11.604;2023-07-24T02:11:39;94522.88;;;19.38;100.00
13314;BME280;6725;48.112;11.604;2023-07-24T02:14:04;94525.66;;;19.38;100.00
13314;BME280;6725;48.112;11.604;2023-07-24T02:16:29;94524.09;;;19.37;100.00
13314;BME280;6725;48.112;11.604;2023-07-24T02:18:54;94534.22;;;19.40;100.00
13314;BME280;6725;48.112;11.604;2023-07-24T02:21:20;94547.31;;;19.39;100.00
13314;BME280;6725;48.112;11.604;2023-07-24T02:23:45;94539.19;;;19.36;100.00
13314;BME280;6725;48.112;11.604;2023-07-24T02:26:10;94544.47;;;19.34;100.00
13314;BME280;6725;48.112;11.604;2023-07-24T02:28:36;94531.84;;;19.33;100.00
13314;BME280;6725;48.112;11.604;2023-07-24T02:31:01;94530.03;;;19.30;100.00
13314;BME280;6725;48.112;11.604;2023-07-24T02:33:27;94530.63;;;19.34;100.00
13314;BME280;6725;48.112;11.604;2023-07-24T02:35:52;94541.28;;;19.41;100.00
13314;BME280;6725;48.112;11.604;2023-07-24T02:38:18;94553.69;;;19.45;100.00
13314;BME280;6725;48.112;11.604;2023-07-24T02:40:44;94623.31;;;19.53;100.00
13314;BME280;6725;48.112;11.604;2023-07-24T02:43:09;94641.94;;;19.67;100.00
13314;BME280;6725;48.112;11.604;2023-07-24T02:45:35;94607.03;;;19.75;100.00
13314;BME280;6725;48.112;11.604;2023-07-24T02:48:00;94613.88;;;19.94;100.00
13314;BME280;6725;48.112;11.604;2023-07-24T02:50:27;94617.75;;;20.02;100.00
13314;BME280;6725;48.112;11.604;2023-07-24T02:52:52;94611.44;;;20.16;100.00
13314;BME280;6725;48.112;11.604;2023-07-24T02:55:18;94631.25;;;20.29;100.00
13314;BME280;6725;48.112;11.604;2023-07-24T02:57:43;94629.72;;;20.28;100.00
13314;BME280;6725;48.112;11.604;2023-07-24T03:00:09;94624.66;;;20.27;100.00
13314;BME280;6725;48.112;11.604;2023-07-24T03:02:34;94620.00;;;20.18;100.00
13314;BME280;6725;48.112;11.604;2023-07-24T03:05:00;94649.06;;;20.23;100.00
13314;BME280;6725;48.112;11.604;2023-07-24T03:07:25;94720.00;;;20.29;100.00
13314;BME280;6725;48.112;11.604;2023-07-24T03:09:51;94790.22;;;20.35;100.00
13314;BME280;6725;48.112;11.604;2023-07-24T03:12:16;94865.03;;;20.44;100.00
13314;BME280;6725;48.112;11.604;2023-07-24T03:14:41;94799.13;;;20.25;100.00
13314;BME280;6725;48.112;11.604;2023-07-24T03:17:06;94700.22;;;19.73;100.00
13314;BME280;6725;48.112;11.604;2023-07-24T03:19:32;94538.88;;;19.48;100.00
13314;BME280;6725;48.112;11.604;2023-07-24T03:21:57;94327.63;;;19.28;100.00
13314;BME280;6725;48.112;11.604;2023-07-24T03:24:22;94132.38;;;19.12;100.00
13314;BME280;6725;48.112;11.604;2023-07-24T03:26:48;93935.28;;;19.03;100.00
13314;BME280;6725;48.112;11.604;2023-07-24T03:29:13;93743.81;;;18.99;100.00
13314;BME280;6725;48.112;11.604;2023-07-24T03:31:38;93453.28;;;18.88;100.00
13314;BME280;6725;48.112;11.604;2023-07-24T03:34:04;93240.31;;;18.82;100.00
13314;BME280;6725;48.112;11.604;2023-07-24T03:36:29;93107.06;;;18.78;100.00
13314;BME280;6725;48.112;11.604;2023-07-24T03:38:54;93032.88;;;18.77;100.00
13314;BME280;6725;48.112;11.604;2023-07-24T03:41:20;92994.97;;;18.72;100.00
13314;BME280;6725;48.112;11.604;2023-07-24T03:43:45;92908.75;;;18.68;100.00
13314;BME280;6725;48.112;11.604;2023-07-24T03:46:10;92803.09;;;18.51;100.00
13314;BME280;6725;48.112;11.604;2023-07-24T03:48:36;92837.13;;;18.40;100.00
13314;BME280;6725;48.112;11.604;2023-07-24T03:51:02;93620.13;;;18.41;100.00
13314;BME280;6725;48.112;11.604;2023-07-24T03:53:27;93624.91;;;18.46;100.00
13314;BME280;6725;48.112;11.604;2023-07-24T03:55:53;93609.59;;;18.45;100.00
13314;BME280;6725;48.112;11.604;2023-07-24T03:58:19;93622.69;;;18.50;100.00
13314;BME280;6725;48.112;11.604;2023-07-24T04:00:44;93632.22;;;18.49;100.00
13314;BME280;6725;48.112;11.604;2023-07-24T04:03:10;93623.69;;;18.47;100.00
13314;BME280;6725;48.112;11.604;2023-07-24T04:05:36;93630.97;;;18.44;100.00
13314;BME280;6725;48.112;11.604;2023-07-24T04:08:02;93631.97;;;18.41;100.00
13314;BME280;6725;48.112;11.604;2023-07-24T04:10:27;93652.47;;;18.29;100.00
13314;BME280;6725;48.112;11.604;2023-07-24T04:12:53;93637.09;;;18.23;100.00
13314;BME280;6725;48.112;11.604;2023-07-24T04:15:19;93639.63;;;18.21;100.00
13314;BME280;6725;48.112;11.604;2023-07-24T04:17:44;93649.09;;;18.09;100.00
13314;BME280;6725;48.112;11.604;2023-07-24T04:20:10;93654.59;;;18.09;100.00
13314;BME280;6725;48.112;11.604;2023-07-24T04:22:35;93636.81;;;18.10;100.00
13314;BME280;6725;48.112;11.604;2023-07-24T04:25:01;93621.44;;;18.09;100.00
13314;BME280;6725;48.112;11.604;2023-07-24T04:27:26;93592.84;;;18.12;100.00
13314;BME280;6725;48.112;11.604;2023-07-24T04:29:51;93403.94;;;18.04;100.00
13314;BME280;6725;48.112;11.604;2023-07-24T04:32:17;93420.50;;;18.04;100.00
13314;BME280;6725;48.112;11.604;2023-07-24T04:34:42;93419.00;;;18.03;100.00
13314;BME280;6725;48.112;11.604;2023-07-24T04:37:07;93426.81;;;18.10;100.00
13314;BME280;6725;48.112;11.604;2023-07-24T04:39:33;93408.50;;;18.18;100.00
13314;BME280;6725;48.112;11.604;2023-07-24T04:41:59;93401.97;;;18.21;100.00
13314;BME280;6725;48.112;11.604;2023-07-24T04:44:24;93419.56;;;18.29;100.00
13314;BME280;6725;48.112;11.604;2023-07-24T04:46:49;93405.47;;;18.32;100.00
13314;BME280;6725;48.112;11.604;2023-07-24T04:49:15;93412.53;;;18.28;100.00
13314;BME280;6725;48.112;11.604;2023-07-24T04:51:41;93404.72;;;18.26;100.00
13314;BME280;6725;48.112;11.604;2023-07-24T04:54:06;93401.97;;;18.32;100.00
13314;BME280;6725;48.112;11.604;2023-07-24T04:56:31;93400.75;;;18.38;100.00
13314;BME280;6725;48.112;11.604;2023-07-24T04:58:57;93408.03;;;18.47;100.00
13314;BME280;6725;48.112;11.604;2023-07-24T05:01:22;93405.00;;;18.56;100.00
13314;BME280;6725;48.112;11.604;2023-07-24T05:03:48;93396.72;;;18.72;100.00
13314;BME280;6725;48.112;11.604;2023-07-24T05:06:13;93410.78;;;18.85;100.00
13314;BME280;6725;48.112;11.604;2023-07-24T05:08:38;93433.91;;;19.10;100.00
13314;BME280;6725;48.112;11.604;2023-07-24T05:11:04;93467.09;;;19.32;100.00
13314;BME280;6725;48.112;11.604;2023-07-24T05:13:29;93484.50;;;19.27;100.00
13314;BME280;6725;48.112;11.604;2023-07-24T05:15:54;93506.09;;;19.23;100.00
13314;BME280;6725;48.112;11.604;2023-07-24T05:18:20;93530.28;;;19.33;100.00
13314;BME280;6725;48.112;11.604;2023-07-24T05:20:46;93562.00;;;19.27;100.00
13314;BME280;6725;48.112;11.604;2023-07-24T05:23:17;93553.44;;;19.25;100.00
13314;BME280;6725;48.112;11.604;2023-07-24T05:25:43;93547.59;;;19.17;100.00
13314;BME280;6725;48.112;11.604;2023-07-24T05:28:08;93554.66;;;19.24;100.00
13314;BME280;6725;48.112;11.604;2023-07-24T05:30:34;93557.69;;;19.42;100.00
13314;BME280;6725;48.112;11.604;2023-07-24T05:32:59;93568.75;;;19.59;100.00
13314;BME280;6725;48.112;11.604;2023-07-24T05:35:25;93573.44;;;20.19;100.00
13314;BME280;6725;48.112;11.604;2023-07-24T05:37:50;93608.66;;;20.98;100.00
13314;BME280;6725;48.112;11.604;2023-07-24T05:40:16;93671.78;;;21.38;100.00
13314;BME280;6725;48.112;11.604;2023-07-24T05:42:41;93712.03;;;22.01;100.00
13314;BME280;6725;48.112;11.604;2023-07-24T05:45:09;93678.13;;;22.81;100.00
13314;BME280;6725;48.112;11.604;2023-07-24T05:47:36;93671.09;;;23.17;100.00
13314;BME280;6725;48.112;11.604;2023-07-24T05:50:01;93715.09;;;23.42;100.00
13314;BME280;6725;48.112;11.604;2023-07-24T05:52:26;93737.38;;;23.00;100.00
13314;BME280;6725;48.112;11.604;2023-07-24T05:54:52;93735.97;;;22.39;100.00
13314;BME280;6725;48.112;11.604;2023-07-24T05:57:17;93714.78;;;22.61;100.00
13314;BME280;6725;48.112;11.604;2023-07-24T05:59:42;93715.13;;;23.18;100.00
13314;BME280;6725;48.112;11.604;2023-07-24T06:02:08;93769.47;;;23.67;100.00
13314;BME280;6725;48.112;11.604;2023-07-24T06:04:34;93813.53;;;24.43;100.00
13314;BME280;6725;48.112;11.604;2023-07-24T06:07:00;93954.97;;;25.09;100.00
13314;BME280;6725;48.112;11.604;2023-07-24T06:09:25;94089.41;;;25.61;100.00
13314;BME280;6725;48.112;11.604;2023-07-24T06:11:50;94248.38;;;26.13;100.00
13314;BME280;6725;48.112;11.604;2023-07-24T06:14:16;94450.97;;;26.52;100.00
13314;BME280;6725;48.112;11.604;2023-07-24T06:16:41;94502.97;;;26.48;100.00
13314;BME280;6725;48.112;11.604;2023-07-24T06:19:06;94517.97;;;25.54;100.00
13314;BME280;6725;48.112;11.604;2023-07-24T06:21:32;94514.16;;;24.76;100.00
13314;BME280;6725;48.112;11.604;2023-07-24T06:23:57;94520.34;;;24.58;100.00
13314;BME280;6725;48.112;11.604;2023-07-24T06:26:22;94528.81;;;25.63;100.00
13314;BME280;6725;48.112;11.604;2023-07-24T06:28:48;94547.59;;;25.98;100.00
13314;BME280;6725;48.112;11.604;2023-07-24T06:31:13;94584.00;;;26.88;100.00
13314;BME280;6725;48.112;11.604;2023-07-24T06:33:38;94599.44;;;27.69;100.00
13314;BME280;6725;48.112;11.604;2023-07-24T06:36:04;94588.28;;;28.40;100.00
13314;BME280;6725;48.112;11.604;2023-07-24T06:38:33;94578.81;;;28.69;100.00
13314;BME280;6725;48.112;11.604;2023-07-24T06:40:59;94575.88;;;29.34;100.00
13314;BME280;6725;48.112;11.604;2023-07-24T06:43:24;94598.00;;;30.17;100.00
13314;BME280;6725;48.112;11.604;2023-07-24T06:45:49;94603.59;;;30.38;100.00
13314;BME280;6725;48.112;11.604;2023-07-24T06:48:15;94607.06;;;30.72;100.00
13314;BME280;6725;48.112;11.604;2023-07-24T06:50:40;94616.84;;;30.71;100.00
13314;BME280;6725;48.112;11.604;2023-07-24T06:53:05;94625.91;;;30.56;100.00
13314;BME280;6725;48.112;11.604;2023-07-24T06:55:30;94623.06;;;31.05;100.00
13314;BME280;6725;48.112;11.604;2023-07-24T06:57:56;94621.44;;;31.53;100.00
13314;BME280;6725;48.112;11.604;2023-07-24T07:00:21;94618.63;;;30.61;100.00
13314;BME280;6725;48.112;11.604;2023-07-24T07:02:46;94619.75;;;30.86;100.00
13314;BME280;6725;48.112;11.604;2023-07-24T07:05:12;94626.00;;;30.92;100.00
13314;BME280;6725;48.112;11.604;2023-07-24T07:07:37;94633.47;;;31.53;96.25
13314;BME280;6725;48.112;11.604;2023-07-24T07:10:04;94640.03;;;31.99;93.48
13314;BME280;6725;48.112;11.604;2023-07-24T07:12:30;94651.97;;;33.02;89.03
13314;BME280;6725;48.112;11.604;2023-07-24T07:14:55;94655.03;;;33.99;79.37
13314;BME280;6725;48.112;11.604;2023-07-24T07:17:21;94660.34;;;33.47;74.82
13314;BME280;6725;48.112;11.604;2023-07-24T07:19:46;94676.25;;;33.28;75.18
13314;BME280;6725;48.112;11.604;2023-07-24T07:22:11;94695.75;;;32.94;75.67
13314;BME280;6725;48.112;11.604;2023-07-24T07:24:37;94702.19;;;31.99;81.83
13314;BME280;6725;48.112;11.604;2023-07-24T07:27:02;94705.31;;;31.37;89.79
13314;BME280;6725;48.112;11.604;2023-07-24T07:29:28;94713.25;;;30.90;95.58
13314;BME280;6725;48.112;11.604;2023-07-24T07:31:53;94717.50;;;30.22;100.00
13314;BME280;6725;48.112;11.604;2023-07-24T07:34:18;94760.56;;;29.76;100.00
13314;BME280;6725;48.112;11.604;2023-07-24T07:36:43;94800.38;;;29.02;100.00
13314;BME280;6725;48.112;11.604;2023-07-24T07:39:09;94816.91;;;27.86;100.00
13314;BME280;6725;48.112;11.604;2023-07-24T07:41:34;94807.09;;;27.32;100.00
13314;BME280;6725;48.112;11.604;2023-07-24T07:44:00;94795.16;;;26.37;100.00
13314;BME280;6725;48.112;11.604;2023-07-24T07:46:25;94769.13;;;25.72;100.00
13314;BME280;6725;48.112;11.604;2023-07-24T07:48:51;94774.88;;;25.39;100.00
13314;BME280;6725;48.112;11.604;2023-07-24T07:51:16;94750.38;;;24.77;100.00
13314;BME280;6725;48.112;11.604;2023-07-24T07:53:41;94721.69;;;24.49;100.00
13314;BME280;6725;48.112;11.604;2023-07-24T07:56:07;94723.97;;;24.67;100.00
13314;BME280;6725;48.112;11.604;2023-07-24T07:58:33;94716.88;;;24.44;100.00
13314;BME280;6725;48.112;11.604;2023-07-24T08:00:58;94700.16;;;24.22;100.00
13314;BME280;6725;48.112;11.604;2023-07-24T08:03:27;94678.56;;;24.17;100.00
13314;BME280;6725;48.112;11.604;2023-07-24T08:05:56;94666.69;;;24.11;100.00
13314;BME280;6725;48.112;11.604;2023-07-24T08:08:22;94652.47;;;24.09;100.00
13314;BME280;6725;48.112;11.604;2023-07-24T08:10:48;94644.59;;;24.07;100.00
13314;BME280;6725;48.112;11.604;2023-07-24T08:13:13;94627.84;;;24.13;100.00
13314;BME280;6725;48.112;11.604;2023-07-24T08:15:38;94629.06;;;24.34;100.00
13314;BME280;6725;48.112;11.604;2023-07-24T08:18:04;94635.19;;;24.27;100.00
13314;BME280;6725;48.112;11.604;2023-07-24T08:20:30;94636.66;;;24.39;100.00
13314;BME280;6725;48.112;11.604;2023-07-24T08:22:55;94644.03;;;24.36;100.00
13314;BME280;6725;48.112;11.604;2023-07-24T08:25:20;94640.47;;;24.47;100.00
13314;BME280;6725;48.112;11.604;2023-07-24T08:27:46;94644.78;;;24.48;100.00
13314;BME280;6725;48.112;11.604;2023-07-24T08:30:11;94641.69;;;24.57;100.00
13314;BME280;6725;48.112;11.604;2023-07-24T08:32:37;94635.44;;;24.34;100.00
13314;BME280;6725;48.112;11.604;2023-07-24T08:35:02;94621.50;;;24.29;100.00
13314;BME280;6725;48.112;11.604;2023-07-24T08:37:27;94610.06;;;24.27;100.00
13314;BME280;6725;48.112;11.604;2023-07-24T08:39:53;94599.72;;;24.00;100.00
13314;BME280;6725;48.112;11.604;2023-07-24T08:42:18;94583.47;;;23.82;100.00
13314;BME280;6725;48.112;11.604;2023-07-24T08:44:45;94604.25;;;23.92;100.00
13314;BME280;6725;48.112;11.604;2023-07-24T08:47:10;94602.00;;;23.96;100.00
13314;BME280;6725;48.112;11.604;2023-07-24T08:49:39;94612.88;;;24.16;100.00
13314;BME280;6725;48.112;11.604;2023-07-24T08:52:08;94617.69;;;24.04;100.00
13314;BME280;6725;48.112;11.604;2023-07-24T08:54:35;94615.94;;;24.07;100.00
13314;BME280;6725;48.112;11.604;2023-07-24T08:57:02;94619.25;;;23.67;100.00
13314;BME280;6725;48.112;11.604;2023-07-24T08:59:28;94602.75;;;23.47;100.00
13314;BME280;6725;48.112;11.604;2023-07-24T09:01:55;94594.34;;;23.25;100.00
13314;BME280;6725;48.112;11.604;2023-07-24T09:04:20;94604.78;;;23.30;100.00
13314;BME280;6725;48.112;11.604;2023-07-24T09:06:46;94616.69;;;23.47;100.00
13314;BME280;6725;48.112;11.604;2023-07-24T09:09:13;94619.72;;;23.43;100.00
13314;BME280;6725;48.112;11.604;2023-07-24T09:11:50;94622.00;;;23.34;100.00
13314;BME280;6725;48.112;11.604;2023-07-24T09:14:26;94616.69;;;23.52;100.00
13314;BME280;6725;48.112;11.604;2023-07-24T09:17:10;94618.97;;;23.54;100.00
13314;BME280;6725;48.112;11.604;2023-07-24T09:19:37;94623.25;;;23.44;100.00
13314;BME280;6725;48.112;11.604;2023-07-24T09:22:13;94622.72;;;23.23;100.00
13314;BME280;6725;48.112;11.604;2023-07-24T09:27:15;94614.38;;;23.40;100.00
13314;BME280;6725;48.112;11.604;2023-07-24T09:29:41;94608.81;;;23.62;100.00
13314;BME280;6725;48.112;11.604;2023-07-24T09:32:07;94602.47;;;24.22;100.00
13314;BME280;6725;48.112;11.604;2023-07-24T09:34:32;94614.16;;;24.88;100.00
13314;BME280;6725;48.112;11.604;2023-07-24T09:36:58;94626.16;;;25.35;100.00
13314;BME280;6725;48.112;11.604;2023-07-24T09:39:25;94634.31;;;25.68;100.00
13314;BME280;6725;48.112;11.604;2023-07-24T09:41:50;94630.06;;;25.91;100.00
13314;BME280;6725;48.112;11.604;2023-07-24T09:44:16;94622.94;;;25.96;100.00
13314;BME280;6725;48.112;11.604;2023-07-24T09:46:43;94611.50;;;25.88;100.00
13314;BME280;6725;48.112;11.604;2023-07-24T09:49:09;94605.25;;;26.36;100.00
13314;BME280;6725;48.112;11.604;2023-07-24T09:51:34;94615.34;;;27.29;100.00
13314;BME280;6725;48.112;11.604;2023-07-24T09:54:06;94609.72;;;27.79;100.00
13314;BME280;6725;48.112;11.604;2023-07-24T09:56:35;94608.50;;;27.93;100.00
13314;BME280;6725;48.112;11.604;2023-07-24T09:59:02;94605.72;;;28.51;100.00
13314;BME280;6725;48.112;11.604;2023-07-24T10:01:28;94607.47;;;28.67;100.00
13314;BME280;6725;48.112;11.604;2023-07-24T10:03:55;94616.06;;;29.21;100.00
13314;BME280;6725;48.112;11.604;2023-07-24T10:06:20;94620.28;;;29.95;100.00
13314;BME280;6725;48.112;11.604;2023-07-24T10:08:46;94616.38;;;29.98;100.00
13314;BME280;6725;48.112;11.604;2023-07-24T10:11:13;94601.94;;;29.81;100.00
13314;BME280;6725;48.112;11.604;2023-07-24T10:13:39;94601.34;;;29.75;100.00
13314;BME280;6725;48.112;11.604;2023-07-24T10:16:06;94598.53;;;30.16;100.00
13314;BME280;6725;48.112;11.604;2023-07-24T10:18:33;94592.66;;;29.73;100.00
13314;BME280;6725;48.112;11.604;2023-07-24T10:21:04;94591.91;;;30.62;100.00
13314;BME280;6725;48.112;11.604;2023-07-24T10:23:30;94595.03;;;30.51;100.00
13314;BME280;6725;48.112;11.604;2023-07-24T10:25:55;94590.22;;;29.90;100.00
13314;BME280;6725;48.112;11.604;2023-07-24T10:28:30;94588.69;;;29.89;100.00
13314;BME280;6725;48.112;11.604;2023-07-24T10:30:56;94593.91;;;29.85;100.00
13314;BME280;6725;48.112;11.604;2023-07-24T10:33:24;94594.03;;;30.00;92.52
13314;BME280;6725;48.112;11.604;2023-07-24T10:35:54;94598.44;;;30.29;92.21
13314;BME280;6725;48.112;11.604;2023-07-24T10:38:36;94603.50;;;30.51;91.64
13314;BME280;6725;48.112;11.604;2023-07-24T10:41:03;94609.81;;;30.64;92.07
13314;BME280;6725;48.112;11.604;2023-07-24T10:43:29;94598.03;;;30.25;94.37
13314;BME280;6725;48.112;11.604;2023-07-24T10:46:04;94594.88;;;30.08;94.00
13314;BME280;6725;48.112;11.604;2023-07-24T10:48:29;94593.06;;;29.43;97.79
13314;BME280;6725;48.112;11.604;2023-07-24T10:50:55;94590.25;;;28.84;100.00
13314;BME280;6725;48.112;11.604;2023-07-24T10:53:21;94587.38;;;29.23;99.85
13314;BME280;6725;48.112;11.604;2023-07-24T10:55:48;94586.78;;;28.91;100.00
13314;BME280;6725;48.112;11.604;2023-07-24T10:58:15;94570.34;;;28.95;100.00
13314;BME280;6725;48.112;11.604;2023-07-24T11:00:43;94563.41;;;28.96;100.00
13314;BME280;6725;48.112;11.604;2023-07-24T11:03:10;94552.75;;;29.61;98.25
13314;BME280;6725;48.112;11.604;2023-07-24T11:05:45;94544.13;;;30.56;94.10
13314;BME280;6725;48.112;11.604;2023-07-24T11:08:12;94540.44;;;31.48;86.11
13314;BME280;6725;48.112;11.604;2023-07-24T11:11:07;94545.34;;;31.47;82.18
13314;BME280;6725;48.112;11.604;2023-07-24T11:13:33;94546.94;;;32.53;74.51
13314;BME280;6725;48.112;11.604;2023-07-24T11:16:04;94538.97;;;32.74;72.40
13314;BME280;6725;48.112;11.604;2023-07-24T11:18:30;94529.44;;;33.09;68.67
13314;BME280;6725;48.112;11.604;2023-07-24T11:20:56;94533.00;;;32.40;71.77
13314;BME280;6725;48.112;11.604;2023-07-24T11:23:23;94521.31;;;31.91;73.20
13314;BME280;6725;48.112;11.604;2023-07-24T11:25:53;94513.94;;;32.48;69.65
13314;BME280;6725;48.112;11.604;2023-07-24T11:28:18;94499.44;;;32.14;69.58
13314;BME280;6725;48.112;11.604;2023-07-24T11:30:44;94498.22;;;31.27;76.56
13314;BME280;6725;48.112;11.604;2023-07-24T11:33:11;94505.81;;;31.70;78.24
13314;BME280;6725;48.112;11.604;2023-07-24T11:35:37;94506.91;;;30.58;88.26
13314;BME280;6725;48.112;11.604;2023-07-24T11:38:06;94497.09;;;30.16;93.14
13314;BME280;6725;48.112;11.604;2023-07-24T11:40:42;94488.09;;;30.17;92.64
13314;BME280;6725;48.112;11.604;2023-07-24T11:43:16;94481.03;;;30.67;86.02
13314;BME280;6725;48.112;11.604;2023-07-24T11:45:43;94491.97;;;30.70;87.93
13314;BME280;6725;48.112;11.604;2023-07-24T11:48:10;94491.56;;;30.31;90.95
13314;BME280;6725;48.112;11.604;2023-07-24T11:50:42;94493.19;;;30.19;91.98
13314;BME280;6725;48.112;11.604;2023-07-24T11:53:28;94472.19;;;29.79;94.76
13314;BME280;6725;48.112;11.604;2023-07-24T11:55:58;94468.06;;;29.39;100.00
13314;BME280;6725;48.112;11.604;2023-07-24T11:58:28;94467.56;;;29.48;100.00
13314;BME280;6725;48.112;11.604;2023-07-24T12:00:54;94485.66;;;29.73;100.00
13314;BME280;6725;48.112;11.604;2023-07-24T12:03:30;94485.38;;;29.43;100.00
13314;BME280;6725;48.112;11.604;2023-07-24T12:05:55;94498.75;;;29.29;100.00
13314;BME280;6725;48.112;11.604;2023-07-24T12:08:30;94497.81;;;29.01;100.00
13314;BME280;6725;48.112;11.604;2023-07-24T12:10:55;94491.25;;;28.65;100.00
13314;BME280;6725;48.112;11.604;2023-07-24T12:13:21;94482.31;;;28.87;100.00
13314;BME280;6725;48.112;11.604;2023-07-24T12:15:46;94474.91;;;29.10;100.00
13314;BME280;6725;48.112;11.604;2023-07-24T12:18:11;94505.69;;;29.49;100.00
13314;BME280;6725;48.112;11.604;2023-07-24T12:20:37;94528.53;;;29.25;100.00
13314;BME280;6725;48.112;11.604;2023-07-24T12:23:02;94558.00;;;28.98;100.00
13314;BME280;6725;48.112;11.604;2023-07-24T12:25:28;94592.31;;;28.57;100.00
13314;BME280;6725;48.112;11.604;2023-07-24T12:27:53;94620.13;;;28.16;100.00
13314;BME280;6725;48.112;11.604;2023-07-24T12:30:19;94618.06;;;27.35;100.00
13314;BME280;6725;48.112;11.604;2023-07-24T12:32:44;94615.53;;;26.94;100.00
13314;BME280;6725;48.112;11.604;2023-07-24T12:35:10;94584.75;;;25.98;100.00
13314;BME280;6725;48.112;11.604;2023-07-24T12:37:35;94554.69;;;25.69;100.00
13314;BME280;6725;48.112;11.604;2023-07-24T12:40:01;94542.63;;;25.15;100.00
13314;BME280;6725;48.112;11.604;2023-07-24T12:42:26;94548.75;;;25.13;100.00
13314;BME280;6725;48.112;11.604;2023-07-24T12:44:52;94554.09;;;25.11;100.00
13314;BME280;6725;48.112;11.604;2023-07-24T12:47:17;94561.66;;;24.76;100.00
13314;BME280;6725;48.112;11.604;2023-07-24T12:49:42;94566.91;;;24.96;100.00
13314;BME280;6725;48.112;11.604;2023-07-24T12:52:08;94575.50;;;24.98;100.00
13314;BME280;6725;48.112;11.604;2023-07-24T12:54:34;94576.50;;;25.06;100.00